Nefterudovoz-29m — UIMI — position and weather

sailwx.info

Track history (hours):
 
Tides and Currents Weather Stations Pressure Air Temp Water Temp Dewpoint Dewpoint Depression Visibility Wind Speed Wind Dir Waves Ship Positions

Nefterudovoz-29m

Last reported at 2017-Aug-13 14:44 UTC. Time now 2017-Aug-16 13:16 UTC.
Position N 44°58' E 036°28'.

Length 119 m; draft 24.5 m.

Type: Cargo ship. MMSI: 273345300.

Date/timePositionNaut miles runAvg speedWind from/ knotsBaromVisibWave heightAir tempDewpointWater temp
2017-Aug-13 14:44N 44°58' E 036°28'13 5.9
2017-Aug-13 12:30N 45°11' E 036°28'3 5.9
2017-Aug-13 11:56N 45°15' E 036°28'3 6.1
2017-Aug-13 11:30N 45°17' E 036°29'3 6.1
2017-Aug-13 11:00N 45°19' E 036°32'3 6.4
2017-Aug-13 10:30N 45°20' E 036°36'3 6.0
2017-Aug-13 10:01N 45°22' E 036°40'3 6.5
2017-Aug-13 09:30N 45°25' E 036°41'3 5.2
2017-Aug-13 09:00N 45°28' E 036°39'1 1.3
2017-Aug-13 08:30N 45°28' E 036°39'0 0.0
2017-Aug-13 08:00N 45°28' E 036°39'1 2.6
2017-Aug-13 07:30N 45°29' E 036°40'3 5.9
2017-Aug-13 07:00N 45°30' E 036°44'4 5.3
2017-Aug-13 06:09N 45°34' E 036°46'  
2017-Aug-06 13:17N 45°47' E 036°57'8 6.1
2017-Aug-06 11:57N 45°39' E 036°53'3 6.0
2017-Aug-06 11:24N 45°36' E 036°51'4 6.2
2017-Aug-06 10:42N 45°32' E 036°49'1 6.3
2017-Aug-06 10:30N 45°31' E 036°48'3 6.1
2017-Aug-06 10:00N 45°28' E 036°46'3 6.3
2017-Aug-06 09:30N 45°26' E 036°43'3 6.4
2017-Aug-06 09:00N 45°23' E 036°41'3 6.1
2017-Aug-06 08:30N 45°21' E 036°38'3 6.7
2017-Aug-06 08:00N 45°19' E 036°33'4 7.0
2017-Aug-06 07:29N 45°18' E 036°29'3 7.0
2017-Aug-06 07:01N 45°14' E 036°29'4 6.9
2017-Aug-06 06:30N 45°11' E 036°29'4 7.0
2017-Aug-06 05:55N 45°07' E 036°30'169 5.9
2017-Aug-05 01:19N 44°05' E 032°50'  
Track history (hours):
 
Tides and Currents Weather Stations Pressure Air Temp Water Temp Dewpoint Dewpoint Depression Visibility Wind Speed Wind Dir Waves Ship Positions

Nefterudovoz-29m

Last reported at 2017-Aug-13 14:44 UTC. Time now 2017-Aug-16 13:16 UTC.
Position N 44°58' E 036°28'.

Length 119 m; draft 24.5 m.

Type: Cargo ship. MMSI: 273345300.

Date/timePositionNaut miles runAvg speedWind from/ knotsBaromVisibWave heightAir tempDewpointWater temp
2017-Aug-13 14:44N 44°58' E 036°28'13 5.9
2017-Aug-13 12:30N 45°11' E 036°28'3 5.9
2017-Aug-13 11:56N 45°15' E 036°28'3 6.1
2017-Aug-13 11:30N 45°17' E 036°29'3 6.1
2017-Aug-13 11:00N 45°19' E 036°32'3 6.4
2017-Aug-13 10:30N 45°20' E 036°36'3 6.0
2017-Aug-13 10:01N 45°22' E 036°40'3 6.5
2017-Aug-13 09:30N 45°25' E 036°41'3 5.2
2017-Aug-13 09:00N 45°28' E 036°39'1 1.3
2017-Aug-13 08:30N 45°28' E 036°39'0 0.0
2017-Aug-13 08:00N 45°28' E 036°39'1 2.6
2017-Aug-13 07:30N 45°29' E 036°40'3 5.9
2017-Aug-13 07:00N 45°30' E 036°44'4 5.3
2017-Aug-13 06:09N 45°34' E 036°46'  
2017-Aug-06 13:17N 45°47' E 036°57'8 6.1
2017-Aug-06 11:57N 45°39' E 036°53'3 6.0
2017-Aug-06 11:24N 45°36' E 036°51'4 6.2
2017-Aug-06 10:42N 45°32' E 036°49'1 6.3
2017-Aug-06 10:30N 45°31' E 036°48'3 6.1
2017-Aug-06 10:00N 45°28' E 036°46'3 6.3
2017-Aug-06 09:30N 45°26' E 036°43'3 6.4
2017-Aug-06 09:00N 45°23' E 036°41'3 6.1
2017-Aug-06 08:30N 45°21' E 036°38'3 6.7
2017-Aug-06 08:00N 45°19' E 036°33'4 7.0
2017-Aug-06 07:29N 45°18' E 036°29'3 7.0
2017-Aug-06 07:01N 45°14' E 036°29'4 6.9
2017-Aug-06 06:30N 45°11' E 036°29'4 7.0
2017-Aug-06 05:55N 45°07' E 036°30'169 5.9
2017-Aug-05 01:19N 44°05' E 032°50'  

Dump ship's entire track history